Time;durP1;ratioP1;P1;durP2;ratioP2;P2;SDS_P1;SDS_P2;PMS_P1;PMS_P2;Temp;Humidity;BMP_temperature;BMP_pressure;BME280_temperature;BME280_humidity;BME280_pressure;Samples;Min_cycle;Max_cycle;Signal;HPM_P1;HPM_P2
2022/12/31 00:01:09;;;;;;;15.77;6.63;;;;;;;14.03;69.98;99202.44;5090034;28;20040;-48
2022/12/31 00:03:35;;;;;;;12.70;6.35;;;;;;;14.07;69.16;99198.34;5091430;28;20055;-49
2022/12/31 00:06:01;;;;;;;9.10;5.40;;;;;;;14.15;70.41;99194.66;5091348;28;20101;-49
2022/12/31 00:08:26;;;;;;;15.50;5.80;;;;;;;14.14;68.43;99188.56;5091348;28;20115;-48
2022/12/31 00:10:52;;;;;;;12.68;6.22;;;;;;;13.99;69.21;99183.56;5090365;28;20056;-48
2022/12/31 00:13:18;;;;;;;10.77;6.43;;;;;;;13.86;70.28;99178.34;5091348;28;20021;-48
2022/12/31 00:15:44;;;;;;;13.85;4.88;;;;;;;13.90;70.63;99191.91;5092061;28;20393;-48
2022/12/31 00:18:10;;;;;;;18.10;6.53;;;;;;;13.93;71.40;99181.75;5095020;28;20126;-48
2022/12/31 00:20:40;;;;;;;13.35;6.22;;;;;;;13.94;70.43;99174.66;5093498;28;20028;-48
2022/12/31 00:23:07;;;;;;;9.68;5.72;;;;;;;13.86;70.55;99173.06;5095152;28;20406;-48
2022/12/31 00:25:34;;;;;;;12.82;6.80;;;;;;;13.92;70.74;99176.69;5094814;28;20032;-48
2022/12/31 00:28:00;;;;;;;15.57;6.15;;;;;;;13.89;70.63;99177.94;5094604;28;20048;-48
2022/12/31 00:30:26;;;;;;;15.15;6.38;;;;;;;13.95;71.43;99185.00;5094747;28;20030;-48
2022/12/31 00:32:52;;;;;;;11.82;5.78;;;;;;;14.02;70.59;99189.44;5094733;28;20028;-48
2022/12/31 00:35:17;;;;;;;12.13;5.60;;;;;;;14.12;71.52;99177.41;5094691;28;20026;-48
2022/12/31 00:37:43;;;;;;;16.08;6.30;;;;;;;14.57;72.08;99180.03;5094652;28;20035;-48
2022/12/31 00:40:09;;;;;;;14.55;5.57;;;;;;;14.89;69.37;99177.34;5093118;28;20031;-48
2022/12/31 00:42:35;;;;;;;9.60;5.35;;;;;;;14.97;69.30;99174.44;5094537;28;20020;-48
2022/12/31 00:45:01;;;;;;;10.55;5.55;;;;;;;14.90;67.86;99172.84;5094765;28;20023;-48
2022/12/31 00:47:26;;;;;;;10.60;5.43;;;;;;;14.75;68.29;99157.34;5093073;28;20536;-48
2022/12/31 00:49:52;;;;;;;14.15;5.30;;;;;;;14.81;67.40;99169.69;5094468;28;20107;-48
2022/12/31 00:52:18;;;;;;;8.15;4.82;;;;;;;14.52;66.88;99166.59;5092998;28;20587;-48
2022/12/31 00:54:43;;;;;;;15.27;5.97;;;;;;;14.31;68.78;99167.75;5093013;28;20490;-48
2022/12/31 00:57:09;;;;;;;23.27;7.60;;;;;;;14.43;70.64;99173.19;5094237;28;20485;-48
2022/12/31 00:59:34;;;;;;;14.55;6.00;;;;;;;14.70;68.37;99167.72;5092841;28;20114;-49
2022/12/31 01:02:00;;;;;;;10.60;5.10;;;;;;;14.63;67.42;99164.31;5094204;28;20119;-48
2022/12/31 01:04:26;;;;;;;14.45;5.80;;;;;;;14.55;66.59;99176.75;5094171;28;20152;-48
2022/12/31 01:06:51;;;;;;;11.75;5.18;;;;;;;14.49;66.99;99164.41;5094027;28;20107;-48
2022/12/31 01:09:17;;;;;;;14.38;5.60;;;;;;;14.43;67.33;99169.72;5094131;28;20023;-48
2022/12/31 01:11:43;;;;;;;12.88;5.60;;;;;;;14.28;67.86;99165.53;5094003;28;20511;-48
2022/12/31 01:14:18;;;;;;;9.75;5.30;;;;;;;14.29;67.99;99153.16;5093870;28;20016;-48
2022/12/31 01:16:52;;;;;;;9.15;5.40;;;;;;;14.21;68.67;99156.06;5093970;28;20111;-48
2022/12/31 01:19:23;;;;;;;16.30;5.47;;;;;;;14.12;68.71;99160.75;5093834;28;20024;-48
2022/12/31 01:21:50;;;;;;;12.63;5.05;;;;;;;14.18;69.75;99160.75;5092428;28;20027;-48
2022/12/31 01:24:16;;;;;;;14.57;5.90;;;;;;;14.17;69.79;99159.13;5092468;28;20021;-48
2022/12/31 01:26:42;;;;;;;14.05;5.32;;;;;;;14.38;69.53;99147.38;5091820;28;20397;-48
2022/12/31 01:29:09;;;;;;;20.55;6.53;;;;;;;14.62;70.96;99146.88;5093084;28;20397;-48
2022/12/31 01:31:36;;;;;;;17.65;6.72;;;;;;;15.08;71.72;99156.25;5093567;28;20413;-48
2022/12/31 01:34:02;;;;;;;13.55;4.82;;;;;;;15.16;66.73;99161.25;5093559;28;20107;-48
2022/12/31 01:36:31;;;;;;;13.43;5.43;;;;;;;14.93;67.80;99160.03;5092193;28;20035;-48
2022/12/31 01:38:58;;;;;;;10.30;4.80;;;;;;;14.96;67.12;99162.22;5093481;28;20081;-48
2022/12/31 01:41:33;;;;;;;14.63;4.22;;;;;;;14.77;67.35;99171.16;5092082;28;20085;-48
2022/12/31 01:44:12;;;;;;;9.57;4.88;;;;;;;14.58;67.77;99160.50;5092166;28;20070;-48
2022/12/31 01:46:40;;;;;;;14.60;5.50;;;;;;;14.93;70.74;99164.47;5092051;28;20047;-48
2022/12/31 01:49:20;;;;;;;17.80;5.60;;;;;;;15.23;67.39;99158.53;5091939;28;20032;-48
2022/12/31 01:51:50;;;;;;;15.13;4.75;;;;;;;15.20;68.14;99165.06;5093292;28;20077;-48
2022/12/31 01:54:17;;;;;;;20.95;8.02;;;;;;;15.31;69.32;99160.88;5093175;28;20020;-48
2022/12/31 01:56:46;;;;;;;15.73;6.22;;;;;;;15.47;69.11;99175.38;5093146;28;20024;-48
2022/12/31 01:59:15;;;;;;;10.80;5.20;;;;;;;15.61;67.82;99173.38;5093067;28;20040;-48
2022/12/31 02:01:41;;;;;;;8.07;5.13;;;;;;;15.57;67.18;99184.44;5091669;28;20453;-48
2022/12/31 02:04:10;;;;;;;9.07;4.60;;;;;;;15.61;65.19;99183.97;5092970;28;20028;-48
2022/12/31 02:06:45;;;;;;;7.88;4.13;;;;;;;15.66;63.37;99189.41;5092902;28;20024;-48
2022/12/31 02:09:12;;;;;;;11.60;4.82;;;;;;;15.53;64.69;99193.00;5092940;28;20077;-48
2022/12/31 02:11:38;;;;;;;6.85;4.75;;;;;;;15.42;65.08;99169.94;5093076;28;20024;-48
2022/12/31 02:14:14;;;;;;;11.93;4.00;;;;;;;15.29;63.89;99162.94;5092784;28;20062;-48
2022/12/31 02:17:06;;;;;;;11.13;4.85;;;;;;;15.14;64.68;99160.66;5091381;28;20073;-48
2022/12/31 02:19:51;;;;;;;6.38;4.18;;;;;;;15.09;64.24;99156.03;5092768;28;20032;-48
2022/12/31 02:22:43;;;;;;;11.15;5.05;;;;;;;14.98;64.54;99154.88;5092667;28;20050;-48
2022/12/31 02:25:24;;;;;;;8.93;4.38;;;;;;;14.91;66.58;99148.03;5092596;28;20027;-48
2022/12/31 02:28:06;;;;;;;10.95;4.70;;;;;;;14.91;66.70;99137.47;5091077;28;20044;-48
2022/12/31 02:30:33;;;;;;;10.85;5.25;;;;;;;14.83;66.15;99130.66;5092580;28;20039;-48
2022/12/31 02:33:04;;;;;;;10.18;6.40;;;;;;;15.04;67.66;99133.91;5092777;28;20024;-48
2022/12/31 02:35:40;;;;;;;12.00;5.00;;;;;;;15.41;66.97;99121.50;5092442;28;20027;-48
2022/12/31 02:38:11;;;;;;;10.75;7.03;;;;;;;15.46;63.29;99124.31;5092286;28;20040;-48
2022/12/31 02:40:38;;;;;;;11.50;4.97;;;;;;;15.14;64.40;99147.44;5090791;28;20401;-48
2022/12/31 02:43:04;;;;;;;9.68;4.90;;;;;;;14.91;64.67;99127.72;5092499;28;20020;-48
2022/12/31 02:45:43;;;;;;;17.15;6.25;;;;;;;14.75;66.21;99141.50;5090939;28;20069;-48
2022/12/31 02:48:18;;;;;;;10.48;6.65;;;;;;;14.68;65.26;99140.72;5092195;28;20032;-48
2022/12/31 02:50:59;;;;;;;14.13;8.65;;;;;;;14.60;67.52;99135.72;5090913;28;20039;-48
2022/12/31 02:53:46;;;;;;;22.48;20.38;;;;;;;14.56;67.57;99135.31;5092213;28;20034;-48
2022/12/31 02:56:23;;;;;;;11.00;4.07;;;;;;;14.52;66.79;99134.91;5090800;28;20024;-48
2022/12/31 03:02:12;;;;;;;11.40;5.15;;;;;;;14.56;66.36;99151.97;5092054;28;20047;-48
2022/12/31 03:04:40;;;;;;;8.98;5.22;;;;;;;14.36;66.92;99162.63;5092053;28;20424;-48
2022/12/31 03:07:09;;;;;;;11.57;5.10;;;;;;;14.27;67.61;99149.94;5092020;28;20021;-48
2022/12/31 03:09:36;;;;;;;10.18;5.22;;;;;;;14.28;68.90;99170.81;5090644;28;20020;-48
2022/12/31 03:14:48;;;;;;;10.65;4.68;;;;;;;14.43;67.82;99164.44;5092548;28;20039;-48
2022/12/31 03:17:14;;;;;;;12.23;5.35;;;;;;;14.33;68.72;99167.56;5090486;28;20012;-48
2022/12/31 03:22:26;;;;;;;12.77;4.65;;;;;;;14.16;68.52;99156.69;5091846;28;20054;-48
2022/12/31 03:27:46;;;;;;;10.32;6.05;;;;;;;14.21;67.21;99148.94;5091616;28;20147;-48
2022/12/31 03:30:14;;;;;;;14.25;6.40;;;;;;;14.02;67.93;99145.38;5090413;28;20035;-48
2022/12/31 03:32:41;;;;;;;10.95;5.18;;;;;;;14.16;69.40;99154.03;5090431;28;20054;-48
2022/12/31 03:35:07;;;;;;;8.93;4.75;;;;;;;14.11;67.77;99164.44;5091705;28;20028;-48
2022/12/31 03:37:33;;;;;;;12.98;5.22;;;;;;;14.01;68.89;99164.88;5090402;28;20031;-48
2022/12/31 03:39:59;;;;;;;9.00;4.05;;;;;;;14.30;69.03;99167.97;5091592;28;20024;-48
2022/12/31 03:42:24;;;;;;;12.60;5.07;;;;;;;14.45;67.90;99171.13;5090293;28;20028;-48
2022/12/31 03:44:50;;;;;;;14.15;5.15;;;;;;;14.52;68.52;99163.16;5091667;28;20020;-48
2022/12/31 03:47:15;;;;;;;11.80;4.57;;;;;;;14.86;66.94;99172.47;5091597;28;20024;-48
2022/12/31 03:49:42;;;;;;;11.05;4.18;;;;;;;14.68;66.13;99175.06;5091650;28;20070;-48
2022/12/31 03:52:07;;;;;;;11.55;4.88;;;;;;;14.44;67.52;99168.69;5094418;28;20024;-48
2022/12/31 03:54:33;;;;;;;8.43;4.03;;;;;;;14.62;68.14;99174.09;5095569;28;20091;-48
2022/12/31 03:56:59;;;;;;;10.82;4.28;;;;;;;14.57;67.32;99180.03;5095469;28;20024;-48
2022/12/31 03:59:25;;;;;;;10.25;4.25;;;;;;;14.57;67.95;99174.75;5094207;28;20020;-48
2022/12/31 04:01:50;;;;;;;9.45;4.10;;;;;;;15.06;68.36;99174.94;5095599;28;20024;-48
2022/12/31 04:04:16;;;;;;;9.35;4.43;;;;;;;15.34;66.44;99173.69;5095393;28;20108;-48
2022/12/31 04:06:41;;;;;;;9.30;4.28;;;;;;;15.45;65.73;99186.16;5093974;28;20035;-48
2022/12/31 04:09:07;;;;;;;9.63;5.68;;;;;;;15.12;65.59;99174.09;5093926;28;20031;-48
2022/12/31 04:11:33;;;;;;;8.18;4.00;;;;;;;14.71;65.08;99172.81;5095221;28;20084;-48
2022/12/31 04:13:58;;;;;;;11.40;4.68;;;;;;;14.30;65.63;99181.16;5076923;28;20082;-49
2022/12/31 04:16:24;;;;;;;9.65;4.20;;;;;;;13.97;66.90;99176.88;5095062;28;20528;-48
2022/12/31 04:18:50;;;;;;;8.32;4.35;;;;;;;13.76;67.30;99177.97;5095061;28;20024;-48
2022/12/31 04:21:15;;;;;;;11.38;4.65;;;;;;;13.49;68.57;99174.63;5094910;28;20024;-48
2022/12/31 04:23:41;;;;;;;10.93;4.38;;;;;;;13.49;69.99;99170.16;5094993;28;20016;-48
2022/12/31 04:26:07;;;;;;;7.40;4.57;;;;;;;13.42;69.43;99166.75;5094585;28;20056;-49
2022/12/31 04:28:33;;;;;;;8.20;4.28;;;;;;;13.19;69.90;99175.03;5093601;28;20020;-48
2022/12/31 04:30:58;;;;;;;9.38;4.20;;;;;;;13.08;70.69;99170.38;5094759;28;20079;-48
2022/12/31 04:33:24;;;;;;;12.60;4.90;;;;;;;13.05;72.03;99160.28;5093459;28;20520;-48
2022/12/31 04:35:49;;;;;;;9.77;5.28;;;;;;;13.13;73.24;99165.31;5094703;28;20030;-48
2022/12/31 04:38:15;;;;;;;22.15;6.57;;;;;;;13.16;72.64;99154.38;5094661;28;20023;-48
2022/12/31 04:41:15;;;;;;;28.90;6.85;;;;;;;13.30;73.68;99155.19;5093214;28;20072;-48
2022/12/31 04:43:26;;;;;;;16.15;5.18;;;;;;;13.51;73.17;99157.56;5094393;28;20246;-48
2022/12/31 04:45:52;;;;;;;18.85;4.55;;;;;;;13.57;72.64;99155.94;5094585;28;20055;-48
2022/12/31 04:48:17;;;;;;;20.20;6.18;;;;;;;13.85;73.11;99154.81;5094526;28;20047;-48
2022/12/31 04:50:45;;;;;;;25.08;5.97;;;;;;;14.24;71.91;99158.25;5094707;28;20080;-48
2022/12/31 04:53:11;;;;;;;19.00;4.80;;;;;;;14.37;70.69;99152.91;5093099;28;20027;-48
2022/12/31 04:55:37;;;;;;;9.13;4.10;;;;;;;14.39;69.94;99148.22;5094308;28;20028;-48
2022/12/31 04:58:03;;;;;;;21.27;5.53;;;;;;;14.44;69.96;99153.66;5092993;28;20024;-48
2022/12/31 05:00:29;;;;;;;10.57;4.68;;;;;;;14.45;69.57;99152.66;5094464;28;20103;-48
2022/12/31 05:02:55;;;;;;;9.60;4.30;;;;;;;14.33;69.13;99170.19;5092582;28;20596;-48
2022/12/31 05:05:20;;;;;;;7.88;3.65;;;;;;;14.30;67.63;99171.41;5093092;28;20046;-48
2022/12/31 05:07:46;;;;;;;8.38;3.53;;;;;;;14.15;67.36;99168.28;5094137;28;20052;-48
2022/12/31 05:10:11;;;;;;;6.43;3.58;;;;;;;14.04;66.84;99169.72;5092703;28;20036;-49
2022/12/31 05:12:37;;;;;;;8.15;3.20;;;;;;;13.95;66.02;99173.66;5094083;28;20012;-48
2022/12/31 05:15:03;;;;;;;9.00;2.92;;;;;;;13.82;65.85;99173.69;5093920;28;20039;-48
2022/12/31 05:17:28;;;;;;;7.22;3.63;;;;;;;13.71;65.74;99168.06;5092606;28;20024;-48
2022/12/31 05:19:54;;;;;;;8.30;3.03;;;;;;;13.58;66.14;99183.91;5093795;28;20027;-48
2022/12/31 05:22:28;;;;;;;6.38;3.20;;;;;;;13.57;66.23;99184.94;5092550;28;20058;-48
2022/12/31 05:24:55;;;;;;;6.80;3.17;;;;;;;13.49;66.49;99182.53;5092568;28;20040;-48
2022/12/31 05:27:21;;;;;;;6.68;2.22;;;;;;;13.55;66.17;99185.13;5093529;28;20520;-48
2022/12/31 05:29:46;;;;;;;9.25;3.17;;;;;;;13.52;66.27;99190.00;5093668;28;20031;-48
2022/12/31 05:32:12;;;;;;;5.55;2.55;;;;;;;13.52;66.37;99182.94;5093581;28;20020;-48
2022/12/31 05:34:38;;;;;;;8.43;2.28;;;;;;;13.55;66.15;99189.63;5092287;28;20413;-48
2022/12/31 05:37:03;;;;;;;6.28;2.45;;;;;;;13.61;65.66;99186.16;5093478;28;20028;-48
2022/12/31 05:39:29;;;;;;;5.32;2.40;;;;;;;13.58;66.03;99178.63;5093553;28;20039;-48
2022/12/31 05:41:54;;;;;;;6.70;2.80;;;;;;;13.55;65.59;99189.63;5093361;28;20100;-48
2022/12/31 05:44:20;;;;;;;7.18;2.30;;;;;;;13.54;65.52;99180.91;5093379;28;20486;-48
2022/12/31 05:46:46;;;;;;;10.55;2.83;;;;;;;13.61;65.31;99175.59;5093361;28;20035;-48
2022/12/31 05:49:12;;;;;;;6.20;2.00;;;;;;;13.71;64.66;99169.88;5093316;28;20416;-48
2022/12/31 05:51:37;;;;;;;7.38;3.05;;;;;;;13.61;65.18;99172.97;5093263;28;20487;-48
2022/12/31 05:54:03;;;;;;;7.40;2.45;;;;;;;13.74;64.43;99170.28;5093253;28;20020;-48
2022/12/31 05:56:29;;;;;;;6.38;2.65;;;;;;;13.75;65.26;99171.88;5091828;28;20082;-48
2022/12/31 05:58:55;;;;;;;5.22;2.13;;;;;;;13.81;64.24;99178.16;5093150;28;20371;-48
2022/12/31 06:01:21;;;;;;;9.60;2.53;;;;;;;13.71;64.68;99175.16;5091681;28;20390;-48
2022/12/31 06:03:47;;;;;;;6.68;2.50;;;;;;;13.78;64.54;99174.13;5091719;28;20512;-48
2022/12/31 06:06:12;;;;;;;8.15;2.85;;;;;;;13.79;64.74;99188.13;5092989;28;20051;-48
2022/12/31 06:08:38;;;;;;;9.40;2.20;;;;;;;13.82;64.54;99184.25;5091586;28;20020;-48
2022/12/31 06:11:04;;;;;;;9.40;3.00;;;;;;;13.83;64.41;99188.53;5092867;28;20032;-48
2022/12/31 06:13:29;;;;;;;3.30;2.00;;;;;;;13.90;63.78;99192.72;5092148;28;20020;-48
2022/12/31 06:15:55;;;;;;;4.35;2.85;;;;;;;13.98;64.37;99192.50;5092825;28;20056;-48
2022/12/31 06:18:21;;;;;;;4.90;2.38;;;;;;;13.99;63.15;99195.97;5092754;28;20498;-48
2022/12/31 06:20:46;;;;;;;6.57;2.60;;;;;;;13.89;63.26;99195.59;5092646;28;20035;-48
2022/12/31 06:23:12;;;;;;;6.97;2.22;;;;;;;13.82;62.98;99198.25;5091673;28;20169;-48
2022/12/31 06:25:37;;;;;;;3.17;1.90;;;;;;;13.77;63.22;99200.72;5092640;28;20030;-48
2022/12/31 06:28:04;;;;;;;10.45;2.28;;;;;;;13.76;63.48;99209.63;5092329;28;20055;-48
2022/12/31 06:30:30;;;;;;;5.03;2.40;;;;;;;13.74;63.20;99209.03;5091230;28;20097;-48
2022/12/31 06:32:56;;;;;;;4.30;2.28;;;;;;;13.70;63.40;99213.09;5091160;28;20028;-48
2022/12/31 06:35:22;;;;;;;4.28;2.33;;;;;;;13.68;63.52;99204.56;5092522;28;20027;-48
2022/12/31 06:37:48;;;;;;;6.10;2.42;;;;;;;13.70;63.30;99216.56;5091139;28;20082;-48
2022/12/31 06:40:13;;;;;;;7.75;2.40;;;;;;;13.69;63.87;99209.66;5091034;28;20020;-48
2022/12/31 06:42:41;;;;;;;4.18;1.90;;;;;;;13.74;63.38;99203.75;5091102;28;20023;-48
2022/12/31 06:45:07;;;;;;;7.38;2.42;;;;;;;13.70;63.61;99211.28;5092234;28;20073;-48
2022/12/31 06:47:32;;;;;;;7.78;2.33;;;;;;;13.72;63.65;99216.34;5092532;28;20405;-48
2022/12/31 06:49:58;;;;;;;8.15;2.65;;;;;;;13.61;64.10;99214.34;5092253;28;20099;-48
2022/12/31 06:52:24;;;;;;;8.20;2.78;;;;;;;13.69;63.74;99199.09;5090880;28;20051;-48
2022/12/31 06:54:50;;;;;;;8.02;2.75;;;;;;;13.69;64.00;99193.81;5092146;28;20024;-48
2022/12/31 06:57:16;;;;;;;6.63;2.80;;;;;;;13.72;63.91;99193.44;5090821;28;20039;-48
2022/12/31 06:59:43;;;;;;;5.85;3.03;;;;;;;13.74;64.35;99190.56;5090799;28;20031;-48
2022/12/31 07:02:42;;;;;;;10.60;3.70;;;;;;;13.78;64.61;99191.75;5092510;28;20028;-48
2022/12/31 07:05:20;;;;;;;6.70;3.05;;;;;;;13.89;63.87;99185.03;5090679;28;20107;-48
2022/12/31 07:08:00;;;;;;;5.13;2.10;;;;;;;13.92;63.23;99195.16;5092032;28;20032;-48
2022/12/31 07:10:49;;;;;;;3.88;1.92;;;;;;;13.95;62.47;99192.91;5090686;28;20043;-47
2022/12/31 07:13:28;;;;;;;4.95;2.53;;;;;;;13.83;62.79;99199.06;5090166;28;20052;-48
2022/12/31 07:16:47;;;;;;;5.47;2.85;;;;;;;13.62;63.40;99197.50;5091854;28;20028;-48
2022/12/31 07:19:15;;;;;;;6.22;2.25;;;;;;;13.53;63.57;99192.44;5013041;28;20163;-48
2022/12/31 07:21:42;;;;;;;6.68;2.20;;;;;;;13.55;63.88;99200.16;5029398;28;20029;-48
2022/12/31 07:24:09;;;;;;;4.82;2.38;;;;;;;13.53;63.86;99196.91;5012859;28;20048;-48
2022/12/31 07:27:12;;;;;;;7.20;2.60;;;;;;;13.51;64.13;99204.22;5033028;28;20045;-48
2022/12/31 07:30:05;;;;;;;4.20;2.17;;;;;;;13.53;64.25;99218.00;5016936;28;20037;-48
2022/12/31 07:32:49;;;;;;;5.22;2.67;;;;;;;13.75;63.92;99221.22;5033563;28;20099;-48
2022/12/31 07:35:24;;;;;;;5.15;2.90;;;;;;;13.81;64.19;99224.84;5033606;28;20072;-48
2022/12/31 07:38:14;;;;;;;9.83;3.30;;;;;;;13.86;64.27;99225.03;5016826;28;20048;-48
2022/12/31 07:40:51;;;;;;;5.00;3.10;;;;;;;13.97;65.47;99221.75;5016698;28;20029;-48
2022/12/31 07:43:37;;;;;;;9.00;2.83;;;;;;;14.02;65.15;99226.38;5016730;28;20033;-48
2022/12/31 07:46:21;;;;;;;8.63;3.20;;;;;;;14.01;65.66;99232.69;5033315;28;20033;-48
2022/12/31 07:48:47;;;;;;;8.32;2.95;;;;;;;14.06;64.40;99231.03;5023028;28;20044;-48
2022/12/31 07:51:13;;;;;;;6.95;3.20;;;;;;;14.17;63.15;99237.50;5094257;28;20023;-48
2022/12/31 07:53:38;;;;;;;10.45;2.88;;;;;;;14.18;62.89;99234.66;5094299;28;20027;-48
2022/12/31 07:56:06;;;;;;;8.65;3.28;;;;;;;14.18;62.68;99226.75;5094142;28;20032;-48
2022/12/31 07:58:35;;;;;;;10.20;3.22;;;;;;;14.16;62.86;99231.38;5095486;28;20480;-48
2022/12/31 08:01:02;;;;;;;4.93;2.45;;;;;;;14.12;62.43;99224.91;5095339;28;20611;-48
2022/12/31 08:03:53;;;;;;;5.85;2.75;;;;;;;14.17;63.10;99232.22;5095373;28;20016;-48
2022/12/31 08:06:44;;;;;;;63.28;21.40;;;;;;;14.22;63.11;99226.31;5095362;28;20562;-48
2022/12/31 08:09:38;;;;;;;10.50;5.00;;;;;;;14.26;62.79;99230.13;5093928;28;20544;-48
2022/12/31 08:12:04;;;;;;;13.98;3.80;;;;;;;14.38;62.54;99226.59;5093893;28;20040;-48
2022/12/31 08:14:30;;;;;;;6.53;3.40;;;;;;;14.42;62.58;99229.66;5095178;28;20081;-48
2022/12/31 08:16:56;;;;;;;12.05;3.08;;;;;;;14.45;62.25;99225.78;5093750;28;20060;-48
2022/12/31 08:19:29;;;;;;;8.23;3.08;;;;;;;14.45;62.33;99220.50;5095086;28;20020;-48
2022/12/31 08:22:13;;;;;;;5.78;2.78;;;;;;;14.45;62.24;99225.78;5095215;28;20024;-48
2022/12/31 08:25:18;;;;;;;6.53;3.20;;;;;;;14.46;62.51;99224.75;5095044;28;20031;-48
2022/12/31 08:28:09;;;;;;;9.35;3.50;;;;;;;14.60;63.50;99213.13;5063456;28;20527;-48
2022/12/31 08:31:00;;;;;;;9.70;3.45;;;;;;;14.77;61.84;99221.34;5063240;28;20543;-48
2022/12/31 08:33:43;;;;;;;8.10;2.70;;;;;;;14.81;61.58;99225.19;5093601;28;20077;-48
2022/12/31 08:36:36;;;;;;;6.72;3.10;;;;;;;14.79;61.61;99221.94;5094473;28;20031;-48
2022/12/31 08:39:12;;;;;;;7.47;3.20;;;;;;;14.80;61.41;99223.53;5082653;28;20043;-48
2022/12/31 08:41:42;;;;;;;5.55;3.20;;;;;;;14.81;61.81;99219.91;5094647;28;20074;-48
2022/12/31 08:44:35;;;;;;;5.55;3.45;;;;;;;14.89;61.38;99211.69;5094653;28;20020;-48
2022/12/31 08:47:19;;;;;;;8.90;3.00;;;;;;;15.12;61.18;99218.22;5093338;28;20046;-48
2022/12/31 08:49:45;;;;;;;10.70;2.53;;;;;;;15.37;59.47;99216.38;5093228;28;20032;-48
2022/12/31 08:52:22;;;;;;;7.07;3.03;;;;;;;15.62;59.50;99214.69;5093211;28;20375;-48
2022/12/31 08:54:48;;;;;;;6.40;2.40;;;;;;;15.79;58.55;99213.09;5094458;28;20028;-48
2022/12/31 08:57:20;;;;;;;5.30;2.63;;;;;;;16.05;57.51;99209.31;5094410;28;20030;-48
2022/12/31 09:00:02;;;;;;;6.95;2.80;;;;;;;16.30;56.89;99203.13;5093094;28;20059;-48
2022/12/31 09:02:38;;;;;;;7.38;3.03;;;;;;;16.45;56.26;99203.50;5094392;28;20032;-48
2022/12/31 09:05:24;;;;;;;3.90;2.33;;;;;;;16.68;55.22;99212.53;5094262;28;20402;-48
2022/12/31 09:08:10;;;;;;;2.67;1.88;;;;;;;16.70;54.64;99213.13;5092902;28;20107;-48
2022/12/31 09:10:57;;;;;;;8.57;2.40;;;;;;;16.58;54.75;99211.28;5093645;28;20464;-48
2022/12/31 09:13:44;;;;;;;4.72;2.60;;;;;;;16.56;54.88;99209.88;5092823;28;20028;-48
2022/12/31 09:16:29;;;;;;;3.53;2.47;;;;;;;16.56;54.71;99228.44;5094018;28;20024;-48
2022/12/31 09:18:54;;;;;;;3.72;1.55;;;;;;;16.59;54.19;99222.66;5092735;28;20028;-48
2022/12/31 09:21:20;;;;;;;4.90;2.00;;;;;;;16.54;54.51;99226.00;5093812;28;20028;-48
2022/12/31 09:23:46;;;;;;;3.22;1.45;;;;;;;16.60;54.23;99218.16;5093820;28;20398;-48
2022/12/31 09:26:30;;;;;;;4.15;1.70;;;;;;;16.55;54.42;99224.97;5092278;28;20517;-49
2022/12/31 09:29:17;;;;;;;5.30;2.35;;;;;;;16.55;54.33;99226.81;5092428;28;20024;-48
2022/12/31 09:31:53;;;;;;;4.65;2.05;;;;;;;16.51;54.59;99209.75;5093659;28;20502;-48
2022/12/31 09:34:33;;;;;;;2.10;1.80;;;;;;;16.47;54.66;99212.03;5075569;28;20028;-48
2022/12/31 09:37:04;;;;;;;5.05;2.13;;;;;;;16.52;54.58;99212.19;5092305;28;20024;-48
2022/12/31 09:39:55;;;;;;;4.25;2.08;;;;;;;16.60;54.34;99215.50;5093588;28;20028;-48
2022/12/31 09:42:44;;;;;;;5.72;2.22;;;;;;;16.63;54.43;99213.22;5088196;28;20032;-48
2022/12/31 09:45:34;;;;;;;9.02;2.35;;;;;;;16.68;54.50;99208.06;5085067;28;20194;-48
2022/12/31 09:48:23;;;;;;;10.43;2.90;;;;;;;16.80;53.94;99204.63;5091538;28;20089;-48
2022/12/31 09:50:57;;;;;;;4.03;1.98;;;;;;;16.77;54.08;99209.34;5093361;28;20452;-48
2022/12/31 09:53:28;;;;;;;5.00;2.03;;;;;;;16.79;54.21;99222.38;5093377;28;20592;-48
2022/12/31 09:56:04;;;;;;;9.48;2.20;;;;;;;16.86;53.83;99222.28;5093250;28;20050;-48
2022/12/31 09:58:41;;;;;;;4.85;1.70;;;;;;;16.99;53.66;99216.00;5093189;28;20032;-48
2022/12/31 10:01:22;;;;;;;5.60;2.15;;;;;;;17.11;53.04;99214.16;5093081;28;20073;-48
2022/12/31 10:04:15;;;;;;;7.38;2.17;;;;;;;17.18;52.62;99217.47;5093027;28;20028;-48
2022/12/31 10:06:50;;;;;;;2.75;1.52;;;;;;;17.25;52.46;99220.84;5092984;28;20035;-48
2022/12/31 10:09:30;;;;;;;4.07;1.40;;;;;;;17.32;52.81;99220.72;5093042;28;20028;-48
2022/12/31 10:12:18;;;;;;;8.00;2.58;;;;;;;17.45;52.12;99219.69;5092966;28;20039;-48
2022/12/31 10:15:01;;;;;;;8.93;6.88;;;;;;;17.60;52.02;99212.03;5092883;28;20024;-48
2022/12/31 10:17:44;;;;;;;3.83;2.85;;;;;;;17.71;51.54;99205.13;5092928;28;20035;-48
2022/12/31 10:20:26;;;;;;;18.30;9.45;;;;;;;17.75;51.32;99214.22;5091362;28;20059;-48
2022/12/31 10:23:24;;;;;;;5.93;2.28;;;;;;;17.77;51.12;99196.22;5091455;28;20028;-48
2022/12/31 10:26:08;;;;;;;4.18;1.80;;;;;;;17.81;51.25;99185.91;5092522;28;20028;-49
2022/12/31 10:28:48;;;;;;;2.38;1.30;;;;;;;18.04;50.49;99185.88;5092717;28;20028;-46
2022/12/31 10:31:29;;;;;;;5.32;1.92;;;;;;;18.21;49.85;99183.28;5092547;28;20097;-46
2022/12/31 10:34:16;;;;;;;4.68;1.88;;;;;;;18.35;49.87;99176.63;5092572;28;20023;-46
2022/12/31 10:36:41;;;;;;;3.60;1.80;;;;;;;18.71;48.74;99179.06;5091149;28;20146;-46
2022/12/31 10:39:44;;;;;;;4.00;1.45;;;;;;;18.88;48.15;99166.63;5091117;28;20114;-46
2022/12/31 10:42:32;;;;;;;3.08;1.80;;;;;;;19.12;47.84;99161.13;5092335;28;20028;-46
2022/12/31 10:45:16;;;;;;;6.95;2.05;;;;;;;19.22;47.10;99155.13;5092449;28;20035;-46
2022/12/31 10:48:10;;;;;;;3.97;1.80;;;;;;;19.27;47.46;99171.97;5092353;28;20062;-46
2022/12/31 10:50:54;;;;;;;4.90;1.60;;;;;;;19.77;46.51;99151.59;5090976;28;20413;-46
2022/12/31 10:53:58;;;;;;;3.97;1.73;;;;;;;19.63;45.85;99151.13;5090959;28;20028;-47
2022/12/31 10:57:05;;;;;;;6.70;1.85;;;;;;;19.24;46.86;99153.84;5090205;28;20089;-46
2022/12/31 10:59:46;;;;;;;9.98;1.80;;;;;;;19.14;47.75;99141.19;5091866;28;20486;-46
2022/12/31 11:02:39;;;;;;;7.63;1.45;;;;;;;19.19;46.97;99158.28;5090756;28;20032;-46
2022/12/31 11:05:26;;;;;;;3.80;1.40;;;;;;;19.05;47.18;99147.16;5090745;28;20089;-46
2022/12/31 11:08:10;;;;;;;4.72;1.35;;;;;;;18.98;47.78;99154.53;5090759;28;20024;-46
2022/12/31 11:10:57;;;;;;;7.55;2.22;;;;;;;19.11;47.94;99132.88;5091989;28;20107;-46
2022/12/31 11:14:10;;;;;;;6.70;1.60;;;;;;;19.36;46.85;99140.41;5092035;28;20020;-46
2022/12/31 11:17:03;;;;;;;2.45;1.40;;;;;;;19.33;46.49;99138.22;5092222;28;20077;-46
2022/12/31 11:19:35;;;;;;;7.88;1.35;;;;;;;19.54;46.78;99137.44;5091883;28;20020;-46
2022/12/31 11:22:26;;;;;;;2.58;1.65;;;;;;;19.77;45.70;99142.81;5092045;28;20078;-46
2022/12/31 11:25:05;;;;;;;5.85;1.42;;;;;;;19.83;46.21;99107.97;5090602;28;20028;-46
2022/12/31 11:27:34;;;;;;;4.07;1.73;;;;;;;19.98;45.07;99085.19;5091518;28;20048;-46
2022/12/31 11:30:22;;;;;;;4.40;1.92;;;;;;;19.66;45.51;99100.06;5090488;28;20028;-46
2022/12/31 11:33:36;;;;;;;5.35;1.38;;;;;;;19.41;46.68;99089.91;5062839;28;20047;-46
2022/12/31 11:36:39;;;;;;;1.85;1.17;;;;;;;19.49;46.11;99100.09;5091818;28;20401;-46
2022/12/31 11:39:27;;;;;;;1.98;1.25;;;;;;;19.28;46.71;99117.69;5090436;28;20031;-46
2022/12/31 11:42:01;;;;;;;4.45;1.70;;;;;;;19.30;46.95;99107.59;5091890;28;20457;-46
2022/12/31 11:44:43;;;;;;;3.20;1.40;;;;;;;19.40;46.75;99122.06;5091679;28;20514;-46
2022/12/31 11:47:42;;;;;;;5.13;1.30;;;;;;;19.50;46.37;99107.06;5091657;28;20509;-46
2022/12/31 11:50:26;;;;;;;5.13;1.70;;;;;;;19.50;46.77;99104.38;5090271;28;20032;-46
2022/12/31 11:53:22;;;;;;;4.63;1.85;;;;;;;19.50;46.53;99085.75;5090355;28;20050;-46
2022/12/31 11:56:06;;;;;;;;;;;;;;;19.43;46.81;99100.31;5092262;28;20028;-46
2022/12/31 11:58:32;;;;;;;3.75;1.98;;;;;;;19.27;46.95;99109.94;5090186;28;19911;-46
2022/12/31 12:01:14;;;;;;;3.83;1.48;;;;;;;19.14;47.49;99119.91;5090093;28;20032;-46
2022/12/31 12:03:42;;;;;;;4.30;1.42;;;;;;;19.08;48.18;99104.13;5091516;28;20024;-46
2022/12/31 12:06:12;;;;;;;6.85;1.75;;;;;;;19.13;47.53;99088.22;5091669;28;20382;-46
2022/12/31 12:08:39;;;;;;;2.50;1.33;;;;;;;19.30;47.15;99091.63;5091420;28;20054;-46
2022/12/31 12:11:26;;;;;;;3.28;1.58;;;;;;;19.60;46.89;99082.41;5091396;28;20035;-46
2022/12/31 12:13:52;;;;;;;5.18;1.48;;;;;;;19.77;46.25;99098.31;5095343;28;20455;-46